< < Back
Terminal Aerodrome Forecast


Current Version              Previous Versions:   1  2  3  4  5  6  7  8  9  

Terminal Aerodrome Forecast

225
FTUS42 KGSP 251734
TAFAVL
TAF
KAVL 251734Z 2518/2618 18005KT P6SM FEW050
     FM252000 18005KT P6SM VCTS SCT040CB
     FM260300 VRB02KT P6SM BKN050 PROB30 2603/2606 4SM -SHRA OVC025
     FM260600 16003KT 4SM BR BKN008
     FM260900 VRB02KT 1/2SM FG OVC003
     FM261300 17004KT P6SM BKN045=



Latest METAR

947
SAUS70 KWBC 260300 RRD
MTRAVL
METAR KAVL 260254Z AUTO 24003KT 10SM SCT055 22/18 A3018 RMK AO2 SLP194
T02170183 51014


USA.gov is the U.S. government's official web portal to all federal, state and local government web resources and services.